Latest Weather Observations for Scoresby

IDV60801

Issued at 10:02 pm EST Tuesday 1 September 2015 (issued every 30 minutes, with the page automatically refreshed every 10 minutes)

About weather observations | Map of weather stations | Latest weather observations for VIC | Other Formats
Station Details ID: 086104 Name: SCORESBY RESEARCH INSTITUTE Lat: -37.87 Lon: 145.26 Height: 80.0 m
Data from the previous 72 hours. | See also: Recent months at Scoresby
Date/Time
EST
Temp
°C
App
Temp
°C
Dew
Point
Rel
Hum
%
Delta-T
°C
Wind Press
QNH
hPa
Press
MSL
hPa
Rain
since 9 am
mm
Dir
 
Spd
km/h
Gust
km/h
Spd
kts
Gust
kts
01/10:00pm 9.9 6.6 4.5 69 2.4 NNE 11 19 6 10 - - 0.0
01/09:30pm 10.4 7.2 5.0 69 2.5 NNE 11 19 6 10 - - 0.0
01/09:00pm 10.2 7.3 4.6 68 2.5 NE 9 15 5 8 - - 0.0
01/08:30pm 10.4 7.5 4.5 67 2.7 NNE 9 17 5 9 - - 0.0
01/08:00pm 10.4 7.5 4.5 67 2.7 NNE 9 13 5 7 - - 0.0
01/07:30pm 10.7 7.8 4.6 66 2.8 NNE 9 13 5 7 - - 0.0
01/07:00pm 11.0 8.5 4.5 64 2.9 NE 7 13 4 7 - - 0.0
01/06:30pm 11.5 8.8 3.8 59 3.4 NE 7 13 4 7 - - 0.0
01/06:00pm 12.7 9.6 3.4 53 4.2 NE 9 17 5 9 - - 0.0
01/05:30pm 13.8 11.6 5.2 56 4.0 NNE 6 11 3 6 - - 0.0
01/05:00pm 14.7 13.0 4.1 49 4.9 NNE 2 7 1 4 - - 0.0
01/04:30pm 15.0 12.2 2.2 42 5.7 NNW 6 9 3 5 - - 0.0
01/04:00pm 15.3 13.1 3.5 45 5.4 NNW 4 9 2 5 - - 0.0
01/03:30pm 15.3 12.8 4.7 49 5.0 NNE 7 17 4 9 - - 0.0
01/03:00pm 15.3 12.9 4.4 48 5.1 N 6 17 3 9 - - 0.0
01/02:30pm 14.7 12.7 4.4 50 4.8 ESE 4 11 2 6 - - 0.0
01/02:00pm 14.7 12.3 4.1 49 4.9 N 6 13 3 7 - - 0.0
01/01:30pm 14.1 12.1 4.4 52 4.5 N 4 11 2 6 - - 0.0
01/01:00pm 13.4 11.1 4.8 56 4.0 NNW 6 13 3 7 - - 0.0
01/12:30pm 13.3 11.2 3.9 53 4.3 NW 4 17 2 9 - - 0.0
01/12:00pm 13.1 10.7 5.3 59 3.6 NNW 7 15 4 8 - - 0.0
01/11:30am 12.1 9.7 4.3 59 3.5 NW 6 17 3 9 - - 0.0
01/11:00am 11.7 9.9 3.7 58 3.6 NNE 2 9 1 5 - - 0.0
01/10:30am 11.5 9.6 4.9 64 3.0 N 4 9 2 5 - - 0.0
01/10:00am 10.1 8.2 2.9 61 3.1 NNE 2 7 1 4 - - 0.0
01/09:30am 9.8 8.1 3.8 66 2.6 NNE 2 6 1 3 - - 0.0
01/09:00am 8.8 6.5 4.8 76 1.8 NE 6 7 3 4 - - 0.0
01/08:30am 7.3 5.6 3.9 79 1.5 NNE 2 6 1 3 - - 0.0
01/08:00am 5.1 3.8 4.2 94 0.4 CALM 0 6 0 3 - - 0.0
01/07:30am 3.0 1.3 2.1 94 0.4 CALM 0 0 0 0 - - 0.0
01/07:00am 2.3 0.5 1.4 94 0.3 CALM 0 4 0 2 - - 0.0
01/06:30am 2.8 1.1 1.8 93 0.4 CALM 0 0 0 0 - - 0.0
01/06:00am 3.0 1.3 2.0 93 0.4 CALM 0 4 0 2 - - 0.0
01/05:30am 2.9 1.2 1.7 92 0.5 CALM 0 0 0 0 - - 0.0
01/05:00am 4.0 2.4 2.7 91 0.5 CALM 0 0 0 0 - - 0.0
01/04:30am 4.9 3.4 3.2 89 0.7 CALM 0 4 0 2 - - 0.0
01/04:00am 6.0 4.7 4.2 88 0.8 CALM 0 0 0 0 - - 0.0
01/03:30am 6.1 4.8 3.9 86 0.9 CALM 0 0 0 0 - - 0.0
01/03:00am 6.6 5.1 3.2 79 1.4 CALM 0 0 0 0 - - 0.0
01/02:30am 7.3 5.7 2.6 72 2.0 CALM 0 0 0 0 - - 0.0
01/02:00am 8.2 6.7 3.1 70 2.2 CALM 0 0 0 0 - - 0.0
01/01:30am 8.6 6.7 3.0 68 2.4 S 2 6 1 3 - - 0.0
01/01:00am 8.5 7.3 4.7 77 1.7 CALM 0 0 0 0 - - 0.0
01/12:30am 8.7 7.6 4.9 77 1.7 CALM 0 0 0 0 - - 0.0
01/12:00am 8.5 7.5 5.6 82 1.3 CALM 0 0 0 0 - - 0.0
 
Date/Time
EST
Temp
°C
App
Temp
°C
Dew
Point
Rel
Hum
%
Delta-T
°C
Wind Press
QNH
hPa
Press
MSL
hPa
Rain
since 9 am
mm
Dir
 
Spd
km/h
Gust
km/h
Spd
kts
Gust
kts
31/11:30pm 8.5 7.5 5.6 82 1.3 CALM 0 0 0 0 - - 0.0
31/11:00pm 8.8 7.8 5.5 80 1.5 CALM 0 0 0 0 - - 0.0
31/10:30pm 9.1 8.1 5.5 78 1.6 CALM 0 0 0 0 - - 0.0
31/10:00pm 9.2 8.1 5.2 76 1.8 CALM 0 0 0 0 - - 0.0
31/09:30pm 9.3 8.2 5.3 76 1.8 CALM 0 2 0 1 - - 0.0
31/09:00pm 9.5 8.4 5.1 74 2.0 CALM 0 0 0 0 - - 0.0
31/08:30pm 9.5 8.0 5.1 74 2.0 S 2 4 1 2 - - 0.0
31/08:00pm 9.7 7.8 4.9 72 2.2 S 4 7 2 4 - - 0.0
31/07:30pm 9.7 7.8 5.1 73 2.1 S 4 7 2 4 - - 0.0
31/07:00pm 9.8 7.5 5.0 72 2.2 S 6 9 3 5 - - 0.0
31/06:30pm 9.9 7.6 4.9 71 2.3 SSW 6 11 3 6 - - 0.0
31/06:00pm 10.0 7.5 5.0 71 2.3 SSW 7 13 4 7 - - 0.0
31/05:30pm 10.0 7.5 4.8 70 2.3 SW 7 11 4 6 - - 0.0
31/05:00pm 10.1 7.2 4.5 68 2.5 SW 9 15 5 8 - - 0.0
31/04:30pm 10.3 7.4 4.9 69 2.4 SW 9 19 5 10 - - 0.0
31/04:00pm 10.7 7.4 4.6 66 2.8 SW 11 19 6 10 - - 0.0
31/03:30pm 11.4 8.5 4.6 63 3.1 SW 9 17 5 9 - - 0.0
31/03:00pm 11.2 7.9 4.4 63 3.1 SSW 11 19 6 10 - - 0.0
31/02:30pm 11.9 9.0 4.6 61 3.3 SSW 9 17 5 9 - - 0.0
31/02:00pm 11.9 8.6 4.6 61 3.3 SW 11 22 6 12 - - 0.0
31/01:30pm 11.2 8.2 4.2 62 3.1 SSW 9 17 5 9 - - 0.0
31/01:00pm 11.4 8.0 3.9 60 3.4 SSW 11 17 6 9 - - 0.0
31/12:30pm 11.6 8.5 3.4 57 3.6 SSE 9 19 5 10 - - 0.0
31/12:00pm 11.2 8.2 4.0 61 3.2 SSW 9 15 5 8 - - 0.0
31/11:30am 10.7 7.7 4.0 63 3.0 S 9 17 5 9 - - 0.0
31/11:00am 10.4 7.2 3.0 60 3.2 S 9 17 5 9 - - 0.0
31/10:30am 10.2 7.3 2.8 60 3.2 SSE 7 17 4 9 - - 0.0
31/10:00am 10.3 7.4 2.7 59 3.3 SW 7 13 4 7 - - 0.0
31/09:30am 10.1 7.2 2.5 59 3.3 S 7 15 4 8 - - 0.0
31/09:00am 9.2 6.9 2.5 63 2.8 S 4 9 2 5 - - 0.0
31/08:30am 9.0 7.6 3.6 69 2.3 CALM 0 2 0 1 - - 0.0
31/08:00am 8.4 7.0 3.7 72 2.0 CALM 0 4 0 2 - - 0.0
31/07:30am 7.3 6.0 3.9 79 1.5 CALM 0 0 0 0 - - 0.0
31/07:00am 7.0 5.5 3.1 76 1.6 CALM 0 0 0 0 - - 0.0
31/06:30am 7.2 5.8 3.3 76 1.7 CALM 0 0 0 0 - - 0.0
31/06:00am 7.5 5.9 2.2 69 2.2 CALM 0 0 0 0 - - 0.0
31/05:30am 7.9 5.0 1.7 65 2.5 SW 6 11 3 6 - - 0.0
31/05:00am 7.5 6.1 3.4 75 1.7 CALM 0 0 0 0 - - 0.0
31/04:30am 7.9 6.6 3.9 76 1.7 CALM 0 0 0 0 - - 0.0
31/04:00am 8.0 6.3 4.2 77 1.7 S 2 4 1 2 - - 0.0
31/03:30am 8.1 6.9 4.5 78 1.6 CALM 0 2 0 1 - - 0.0
31/03:00am 8.2 7.2 5.5 83 1.2 CALM 0 0 0 0 - - 0.0
31/02:30am 8.3 7.3 5.4 82 1.3 CALM 0 0 0 0 - - 0.0
31/02:00am 8.4 6.5 5.0 79 1.5 W 4 6 2 3 - - 0.0
31/01:30am 8.6 6.2 4.4 75 1.9 W 6 7 3 4 - - 0.0
31/01:00am 8.8 6.8 4.2 73 2.0 WSW 4 6 2 3 - - 0.0
31/12:30am 8.5 7.1 3.8 72 2.0 CALM 0 4 0 2 - - 0.0
31/12:00am 8.4 7.2 4.6 77 1.7 CALM 0 2 0 1 - - 0.0
 
Date/Time
EST
Temp
°C
App
Temp
°C
Dew
Point
Rel
Hum
%
Delta-T
°C
Wind Press
QNH
hPa
Press
MSL
hPa
Rain
since 9 am
mm
Dir
 
Spd
km/h
Gust
km/h
Spd
kts
Gust
kts
30/11:30pm 8.5 7.2 3.9 73 2.0 CALM 0 0 0 0 - - 0.0
30/11:00pm 8.8 7.1 3.8 71 2.2 S 2 6 1 3 - - 0.0
30/10:30pm 8.8 7.6 4.6 75 1.9 CALM 0 6 0 3 - - 0.0
30/10:00pm 8.8 6.9 5.0 77 1.7 S 4 7 2 4 - - 0.0
30/09:30pm 8.5 7.4 5.1 79 1.5 CALM 0 0 0 0 - - 0.0
30/09:00pm 8.6 7.5 5.0 78 1.6 CALM 0 0 0 0 - - 0.0
30/08:30pm 8.2 7.1 5.0 80 1.4 CALM 0 0 0 0 - - 0.0
30/08:00pm 8.2 6.6 4.4 77 1.7 S 2 6 1 3 - - 0.0
30/07:30pm 8.6 6.3 4.6 76 1.8 SSW 6 7 3 4 - - 0.0
30/07:00pm 9.4 6.6 5.0 74 2.0 SSW 9 17 5 9 - - 0.0
30/06:30pm 9.7 6.5 5.1 73 2.1 SSW 11 17 6 9 - - 0.0
30/06:00pm 9.9 7.3 4.3 68 2.5 SW 7 15 4 8 - - 0.0
30/05:30pm 10.3 7.3 4.2 66 2.7 SW 9 17 5 9 - - 0.0
30/05:00pm 10.6 8.1 4.9 68 2.6 S 7 13 4 7 - - 0.0
30/04:30pm 11.0 8.6 5.3 68 2.6 S 7 15 4 8 - - 0.0
30/04:00pm 11.8 8.6 5.2 64 3.0 WSW 11 19 6 10 - - 0.0
30/03:30pm 11.7 8.5 5.1 64 3.0 SSW 11 19 6 10 - - 0.0
30/03:00pm 11.7 7.7 4.9 63 3.1 SW 15 22 8 12 - - 0.0
30/02:30pm 12.4 9.4 6.0 65 3.0 SW 11 22 6 12 - - 0.0
30/02:00pm 12.4 9.0 6.0 65 3.0 SW 13 20 7 11 - - 0.0
30/01:30pm 12.0 9.3 5.6 65 3.0 SW 9 15 5 8 - - 0.0
30/01:00pm 12.4 10.2 5.1 61 3.4 WSW 6 11 3 6 - - 0.0
30/12:30pm 11.7 8.9 5.1 64 3.0 WSW 9 15 5 8 - - 0.0
30/12:00pm 11.8 10.3 5.0 63 3.1 WSW 2 6 1 3 - - 0.0
30/11:30am 11.6 9.4 5.3 65 2.9 WSW 6 13 3 7 - - 0.0
30/11:00am 11.3 8.9 5.2 66 2.8 WSW 7 13 4 7 - - 0.0
30/10:30am 11.1 8.6 4.8 65 2.9 S 7 13 4 7 - - 0.0
30/10:00am 11.4 8.7 5.7 68 2.7 SSW 9 17 5 9 - - 0.0
30/09:30am 10.8 7.6 4.9 67 2.7 SSW 11 17 6 9 - - 0.0
30/09:00am 10.3 7.4 4.7 68 2.5 SSW 9 17 5 9 - - 0.8
30/08:30am 9.7 8.7 5.7 76 1.8 CALM 0 4 0 2 - - 0.8
30/08:00am 8.8 7.9 6.1 83 1.2 CALM 0 0 0 0 - - 0.8
30/07:30am 8.7 7.9 6.7 87 0.9 CALM 0 0 0 0 - - 0.8
30/07:00am 8.1 7.1 5.6 84 1.1 CALM 0 0 0 0 - - 0.8
30/06:30am 8.3 7.4 6.1 86 1.0 CALM 0 0 0 0 - - 0.8
30/06:00am 8.3 7.4 5.9 85 1.1 CALM 0 0 0 0 - - 0.8
30/05:30am 8.6 6.9 6.1 84 1.1 SSW 4 6 2 3 - - 0.8
30/05:00am 8.4 7.6 6.4 87 0.9 CALM 0 0 0 0 - - 0.8
30/04:30am 8.6 7.4 6.6 87 0.9 SSW 2 4 1 2 - - 0.8
30/04:00am 8.5 7.8 6.8 89 0.8 CALM 0 0 0 0 - - 0.8
30/03:30am 8.3 7.6 6.8 90 0.7 CALM 0 0 0 0 - - 0.8
30/03:00am 8.3 7.6 6.8 90 0.7 CALM 0 0 0 0 - - 0.8
30/02:30am 8.4 6.9 6.9 90 0.7 SSW 4 6 2 3 - - 0.8
30/02:00am 8.5 6.7 7.0 90 0.7 SW 6 9 3 5 - - 0.6
30/01:30am 8.7 7.2 7.0 89 0.8 SW 4 7 2 4 - - 0.6
30/01:00am 8.6 6.6 6.9 89 0.8 SW 7 11 4 6 - - 0.6
30/12:30am 8.4 7.6 6.7 89 0.8 CALM 0 4 0 2 - - 0.6
30/12:00am 8.3 6.8 6.6 89 0.8 SW 4 6 2 3 - - 0.6
 
Date/Time
EST
Temp
°C
App
Temp
°C
Dew
Point
Rel
Hum
%
Delta-T
°C
Wind Press
QNH
hPa
Press
MSL
hPa
Rain
since 9 am
mm
Dir
 
Spd
km/h
Gust
km/h
Spd
kts
Gust
kts
29/11:30pm 8.6 6.1 6.6 87 0.9 SSW 9 19 5 10 - - 0.6
29/11:00pm 9.0 7.4 6.3 83 1.2 SSW 4 9 2 5 - - 0.6
29/10:30pm 9.1 6.9 6.4 83 1.3 SSW 7 13 4 7 - - 0.6

Other Formats:

Comma delimited format used in spreadsheet applications
http://www.bom.gov.au/fwo/IDV60801/IDV60801.95867.axf

JavaScript Object Notation format (JSON) in row-major order
http://www.bom.gov.au/fwo/IDV60801/IDV60801.95867.json